South Pasadena, CA (91030)

11:35 AM PST on November 21, 2014 (GMT -0800)
Elephant Hill | Change Station
CLOSE
Current Station
Personal Weather Station
Location: South Pasadena, CA
Elevation: 825 ft
Nearby Weather Stations

Elev 825 ft 34.10 °N, 118.17 °W | Updated 4 minutes ago

Clear
Clear
66.9 °F
Feels Like 66.9 °F
N
4.0
Wind Variable Wind from ENE
Gusts 8.0 mph

Today
High -- | Low -- °F
--% Chance of Precip.
Yesterday
High -- | Low -- °F
Precip. -- in
6:31 AM 4:45 PM
Waning Crescent, 1% visible
Pressure 29.96 in
Visibility 10.0 miles
Clouds Clear
Dew Point 52 °F
Humidity 60%
Rainfall 0.00 in
Snow Depth Not available.
UV 4 out of 12
Pollen 2.00 out of 12
Air Quality Not available.
Flu Activity Not available.
METAR KCQT 211847Z AUTO 00000KT 10SM CLR 21/08 A2996 RMK AO2 SLP145 T02110083

More Conditions Fewer Conditions

Pressure 29.96 in
Visibility 10.0 miles
Clouds Clear
Dew Point 52 °F
Humidity 60%
Rainfall 0.00 in
Snow Depth Not available.
UV 4 out of 12
Pollen 2.00 out of 12
Air Quality Not available.
Flu Activity Not available.
METAR KCQT 211847Z AUTO 00000KT 10SM CLR 21/08 A2996 RMK AO2 SLP145 T02110083

More Conditions Fewer Conditions

10-Day Weather Forecast

Almanac

Astronomy

Nov. 21, 2014 Rise Set
Actual Time
Civil Twilight
Nautical Twilight
Astronomical Twilight
Moon
Length of Visible Light
Length of Day
Tomorrow will be .
, % of the Moon is Illuminated

Today's Extremes

State Highs State Lows

Community

WunderPhotos

Upload Photos

1,772,703 photos uploaded!

WunderBlogs® & News

Nearby

Air Quality

  Air Quality AQ Index Pollutant
Not available.

Snow Depth

Station Depth Elevation

Earthquake Activity

City Distance Mag. Time & Date
Minimum magnitude displayed is 2.5.

Coastal Water Temperatures

Place Temperature

Nearby Weather Stations